createdAt,value
2019-03-13T00:01:08.473Z,1.80
2019-03-13T00:03:09.953Z,1.57
2019-03-13T00:05:11.513Z,2.33
2019-03-13T00:07:12.904Z,1.67
2019-03-13T00:09:14.250Z,1.60
2019-03-13T00:11:15.809Z,1.90
2019-03-13T00:13:17.583Z,3.07
2019-03-13T00:15:19.050Z,2.50
2019-03-13T00:17:20.400Z,1.70
2019-03-13T00:19:21.863Z,2.07
2019-03-13T00:21:23.211Z,2.07
2019-03-13T00:23:24.566Z,2.17
2019-03-13T00:25:25.980Z,1.63
2019-03-13T00:27:27.447Z,1.80
2019-03-13T00:29:28.806Z,1.90
2019-03-13T00:31:30.389Z,2.20
2019-03-13T00:33:31.836Z,1.87
2019-03-13T00:35:33.212Z,1.53
2019-03-13T00:37:34.629Z,1.50
2019-03-13T00:39:36.003Z,2.03
2019-03-13T00:41:37.528Z,1.73
2019-03-13T00:43:38.933Z,2.03
2019-03-13T00:45:40.299Z,1.80
2019-03-13T00:47:41.660Z,2.00
2019-03-13T00:49:43.058Z,1.70
2019-03-13T00:51:45.554Z,2.03
2019-03-13T00:53:46.908Z,1.30
2019-03-13T00:55:48.505Z,1.70
2019-03-13T00:57:49.966Z,1.80
2019-03-13T00:59:51.324Z,1.83
2019-03-13T01:02:11.130Z,1.73
2019-03-13T01:04:14.428Z,1.77
2019-03-13T01:06:17.700Z,1.93
2019-03-13T01:08:19.168Z,1.70
2019-03-13T01:10:20.537Z,2.00
2019-03-13T01:12:22.015Z,1.90
2019-03-13T01:14:23.419Z,1.77
2019-03-13T01:16:24.787Z,1.70
2019-03-13T01:18:26.143Z,1.70
2019-03-13T01:20:27.729Z,2.20
2019-03-13T01:22:29.098Z,1.80
2019-03-13T01:24:30.918Z,2.00
2019-03-13T01:26:32.327Z,2.23
2019-03-13T01:28:33.695Z,1.67
2019-03-13T01:30:39.669Z,1.80
2019-03-13T01:32:42.943Z,2.10
2019-03-13T01:34:46.333Z,1.37
2019-03-13T01:37:07.970Z,1.50
2019-03-13T01:39:09.338Z,1.73
2019-03-13T01:41:10.707Z,1.90
2019-03-13T01:43:12.171Z,1.80
2019-03-13T01:45:15.557Z,1.83
2019-03-13T01:47:17.022Z,2.20
2019-03-13T01:49:18.461Z,1.70
2019-03-13T01:51:19.817Z,2.93
2019-03-13T01:53:21.182Z,2.23
2019-03-13T01:55:22.589Z,1.90
2019-03-13T01:57:23.958Z,2.20
2019-03-13T01:59:25.407Z,2.03
2019-03-13T02:01:26.893Z,2.57
2019-03-13T02:03:28.255Z,2.43
2019-03-13T02:05:29.622Z,2.50
2019-03-13T02:07:31.051Z,2.57
2019-03-13T02:09:32.710Z,2.87
2019-03-13T02:11:34.668Z,2.03
2019-03-13T02:13:36.027Z,2.40
2019-03-13T02:15:37.443Z,2.20
2019-03-13T02:17:38.800Z,2.87
2019-03-13T02:19:40.166Z,2.60
2019-03-13T02:21:41.584Z,2.60
2019-03-13T02:23:42.945Z,2.40
2019-03-13T02:25:44.340Z,2.63
2019-03-13T02:27:45.764Z,2.20
2019-03-13T02:29:47.121Z,2.50
2019-03-13T02:31:48.481Z,3.17
2019-03-13T02:33:49.878Z,2.17
2019-03-13T02:35:51.247Z,2.40
2019-03-13T02:37:52.611Z,2.53
2019-03-13T02:39:54.027Z,2.20
2019-03-13T02:41:55.393Z,2.43
2019-03-13T02:43:56.742Z,2.80
2019-03-13T02:45:58.270Z,2.73
2019-03-13T02:47:59.639Z,2.50
2019-03-13T02:50:01.014Z,2.90
2019-03-13T02:52:02.419Z,2.30
2019-03-13T02:54:03.855Z,2.50
2019-03-13T02:56:05.210Z,2.30
2019-03-13T02:58:06.577Z,3.00
2019-03-13T03:00:12.786Z,2.60
2019-03-13T03:02:16.118Z,2.63
2019-03-13T03:04:17.471Z,1.90
2019-03-13T03:06:18.908Z,2.40
2019-03-13T03:08:20.315Z,2.23
2019-03-13T03:10:21.755Z,2.97
2019-03-13T03:12:23.116Z,2.60
2019-03-13T03:14:24.478Z,2.67
2019-03-13T03:16:25.902Z,2.90
2019-03-13T03:18:27.246Z,2.77
2019-03-13T03:20:28.686Z,2.47
2019-03-13T03:22:30.336Z,2.30
2019-03-13T03:24:31.676Z,1.33
2019-03-13T03:26:33.030Z,1.50
2019-03-13T03:28:34.436Z,1.20
2019-03-13T03:30:35.893Z,1.30
2019-03-13T03:32:37.226Z,1.77
2019-03-13T03:34:38.842Z,1.33
2019-03-13T03:36:40.198Z,1.30
2019-03-13T03:38:41.541Z,1.60
2019-03-13T03:40:43.302Z,1.40
2019-03-13T03:42:44.649Z,1.67
2019-03-13T03:44:45.997Z,1.67
2019-03-13T03:46:47.445Z,1.80
2019-03-13T03:48:48.743Z,1.50
2019-03-13T03:50:50.086Z,1.43
2019-03-13T03:52:51.547Z,1.70
2019-03-13T03:54:52.890Z,1.77
2019-03-13T03:56:54.277Z,1.37
2019-03-13T03:58:55.676Z,1.90
2019-03-13T04:00:57.121Z,1.90
2019-03-13T04:02:58.533Z,1.40
2019-03-13T04:04:59.971Z,1.70
2019-03-13T04:07:01.459Z,1.43
2019-03-13T04:09:04.781Z,2.00
2019-03-13T04:11:06.122Z,1.60
2019-03-13T04:13:09.377Z,1.90
2019-03-13T04:15:14.955Z,1.50
2019-03-13T04:17:18.177Z,1.80
2019-03-13T04:19:19.717Z,1.90
2019-03-13T04:21:21.109Z,1.97
2019-03-13T04:23:22.465Z,1.90
2019-03-13T04:25:29.377Z,2.07
2019-03-13T04:27:30.721Z,2.30
2019-03-13T04:29:32.183Z,2.20
2019-03-13T04:31:35.566Z,2.93
2019-03-13T04:33:36.927Z,2.33
2019-03-13T04:35:38.337Z,2.33
2019-03-13T04:37:39.676Z,1.80
2019-03-13T04:39:41.023Z,2.43
2019-03-13T04:41:42.438Z,2.20
2019-03-13T04:43:43.779Z,2.13
2019-03-13T04:45:45.215Z,2.57
2019-03-13T04:47:46.603Z,2.50
2019-03-13T04:49:47.942Z,2.20
2019-03-13T04:51:49.284Z,2.00
2019-03-13T04:53:50.672Z,2.60
2019-03-13T04:55:52.709Z,2.63
2019-03-13T04:57:54.205Z,2.23
2019-03-13T04:59:55.670Z,2.20
2019-03-13T05:01:57.046Z,2.73
2019-03-13T05:03:58.376Z,2.40
2019-03-13T05:06:00.714Z,2.07
2019-03-13T05:08:02.097Z,3.20
2019-03-13T05:10:07.872Z,2.25
2019-03-13T05:12:09.228Z,3.25
2019-03-13T05:14:10.576Z,2.45
2019-03-13T05:16:11.929Z,2.30
2019-03-13T05:18:13.318Z,2.15
2019-03-13T05:20:14.667Z,2.40
2019-03-13T05:22:16.009Z,2.60
2019-03-13T05:24:17.393Z,2.40
2019-03-13T05:26:18.745Z,2.27
2019-03-13T05:28:20.112Z,2.27
2019-03-13T05:30:21.519Z,2.22
2019-03-13T05:32:22.869Z,2.10
2019-03-13T05:34:24.247Z,2.70
2019-03-13T05:36:25.630Z,2.40
2019-03-13T05:38:27.204Z,2.50
2019-03-13T05:40:28.563Z,2.40
2019-03-13T05:42:29.986Z,2.50
2019-03-13T05:44:31.519Z,2.40
2019-03-13T05:46:32.864Z,2.40
2019-03-13T05:48:34.232Z,1.87
2019-03-13T05:50:35.610Z,2.70
2019-03-13T05:52:37.082Z,2.42
2019-03-13T05:54:38.444Z,1.80
2019-03-13T05:56:40.894Z,2.37
2019-03-13T05:58:42.501Z,2.60
2019-03-13T06:00:43.864Z,1.95
2019-03-13T06:02:47.655Z,1.75
2019-03-13T06:04:48.576Z,6.80
2019-03-13T06:06:49.978Z,3.92
2019-03-13T06:08:51.365Z,2.02
2019-03-13T06:10:52.740Z,3.42
2019-03-13T06:12:54.119Z,11.00
2019-03-13T06:14:55.492Z,2.83
2019-03-13T06:16:56.874Z,3.85
2019-03-13T06:18:58.217Z,3.90
2019-03-13T06:20:59.910Z,4.17
2019-03-13T06:23:01.248Z,2.67
2019-03-13T06:25:02.923Z,5.20
2019-03-13T06:27:04.274Z,3.60
2019-03-13T06:29:05.743Z,3.93
2019-03-13T06:31:07.114Z,3.20
2019-03-13T06:33:08.518Z,4.70
2019-03-13T06:35:10.025Z,2.58
2019-03-13T06:37:11.431Z,8.73
2019-03-13T06:39:12.854Z,6.90
2019-03-13T06:41:14.341Z,4.75
2019-03-13T06:43:15.677Z,4.80
2019-03-13T06:45:17.026Z,6.50
2019-03-13T06:47:18.516Z,3.62
2019-03-13T06:49:19.835Z,2.47
2019-03-13T06:51:21.279Z,2.90
2019-03-13T06:53:22.844Z,3.57
2019-03-13T06:55:24.302Z,2.60
2019-03-13T06:57:25.647Z,3.30
2019-03-13T06:59:32.106Z,3.00
2019-03-13T07:01:38.256Z,2.50
2019-03-13T07:03:41.506Z,3.27
2019-03-13T07:05:47.432Z,3.43
2019-03-13T07:07:50.729Z,3.00
2019-03-13T07:09:53.966Z,3.27
2019-03-13T07:12:12.192Z,3.60
2019-03-13T07:14:24.542Z,3.13
2019-03-13T07:16:27.823Z,3.33
2019-03-13T07:18:33.792Z,3.50
2019-03-13T07:20:37.071Z,3.53
2019-03-13T07:22:42.980Z,7.97
2019-03-13T07:24:46.317Z,11.80
2019-03-13T07:26:58.568Z,4.77
2019-03-13T07:29:11.464Z,4.73
2019-03-13T07:31:23.843Z,4.20
2019-03-13T07:33:27.141Z,4.73
2019-03-13T07:35:33.057Z,5.73
2019-03-13T07:37:45.446Z,5.77
2019-03-13T07:40:00.448Z,4.17
2019-03-13T07:42:20.340Z,6.17
2019-03-13T07:44:35.620Z,4.80
2019-03-13T07:46:47.646Z,3.90
2019-03-13T07:49:05.788Z,4.13
2019-03-13T07:51:12.213Z,3.60
2019-03-13T07:53:24.671Z,3.50
2019-03-13T07:55:33.824Z,5.00
2019-03-13T07:57:40.026Z,3.17
2019-03-13T07:59:46.198Z,7.53
2019-03-13T08:02:01.644Z,4.23
2019-03-13T08:04:10.867Z,5.33
2019-03-13T08:06:14.150Z,4.03
2019-03-13T08:08:17.391Z,3.33
2019-03-13T08:10:26.593Z,3.60
2019-03-13T08:12:47.930Z,3.80
2019-03-13T08:14:51.173Z,3.47
2019-03-13T08:17:11.603Z,5.03
2019-03-13T08:19:17.523Z,8.23
2019-03-13T08:21:26.861Z,10.03
2019-03-13T08:23:30.122Z,5.47
2019-03-13T08:25:36.415Z,3.70
2019-03-13T08:27:45.639Z,4.03
2019-03-13T08:29:51.939Z,6.50
2019-03-13T08:41:36.948Z,2.93
2019-03-13T08:43:49.274Z,3.50
2019-03-13T08:45:58.467Z,3.57
2019-03-13T08:48:07.691Z,3.30
2019-03-13T08:50:11.599Z,2.73
2019-03-13T08:52:17.719Z,3.67
2019-03-13T08:54:24.047Z,3.30
2019-03-13T08:56:30.040Z,2.90
2019-03-13T08:58:49.721Z,2.77
2019-03-13T09:01:01.789Z,3.03
2019-03-13T09:03:13.985Z,3.00
2019-03-13T09:05:17.270Z,2.30
2019-03-13T09:07:32.744Z,2.30
2019-03-13T09:09:44.841Z,2.33
2019-03-13T09:11:50.892Z,2.77
2019-03-13T09:14:09.138Z,2.40
2019-03-13T09:16:15.433Z,2.10
2019-03-13T09:18:18.721Z,2.17
2019-03-13T09:20:21.931Z,2.20
2019-03-13T09:22:25.203Z,2.43
2019-03-13T09:24:28.637Z,1.90
2019-03-13T09:26:46.833Z,1.67
2019-03-13T09:28:55.998Z,2.37
2019-03-13T09:31:17.301Z,2.00
2019-03-13T09:33:29.430Z,2.00
2019-03-13T09:35:49.483Z,1.70
2019-03-13T09:37:52.725Z,1.50
2019-03-13T09:40:07.872Z,2.57
2019-03-13T09:42:11.117Z,4.80
2019-03-13T09:44:29.324Z,10.80
2019-03-13T09:46:35.258Z,9.03
2019-03-13T09:48:47.394Z,3.53
2019-03-13T09:50:56.889Z,2.53
2019-03-13T09:53:08.850Z,2.37
2019-03-13T09:55:12.283Z,2.70
2019-03-13T09:57:32.064Z,1.90
2019-03-13T09:59:43.445Z,2.90
2019-03-13T10:01:49.691Z,2.03
2019-03-13T10:04:09.530Z,2.80
2019-03-13T10:06:24.734Z,3.20
2019-03-13T10:08:30.643Z,3.97
2019-03-13T10:10:33.896Z,2.53
2019-03-13T10:12:37.193Z,1.50
2019-03-13T10:14:40.445Z,2.17
2019-03-13T10:16:43.689Z,2.40
2019-03-13T10:18:47.237Z,2.30
2019-03-13T10:21:07.256Z,1.93
2019-03-13T10:23:19.227Z,1.70
2019-03-13T10:25:39.136Z,2.43
2019-03-13T10:27:42.413Z,2.87
2019-03-13T10:29:48.571Z,2.37
2019-03-13T10:31:57.756Z,2.33
2019-03-13T10:34:09.891Z,3.00
2019-03-13T10:36:18.825Z,2.60
2019-03-13T10:38:25.245Z,2.00
2019-03-13T10:40:46.461Z,2.00
2019-03-13T10:43:04.942Z,2.40
2019-03-13T10:45:27.573Z,1.80
2019-03-13T10:47:47.371Z,2.30
2019-03-13T10:49:56.339Z,2.00
2019-03-13T10:52:02.858Z,2.20
2019-03-13T10:54:06.155Z,1.53
2019-03-13T10:56:09.399Z,1.80
2019-03-13T10:58:12.650Z,1.77
2019-03-13T11:00:19.304Z,1.80
2019-03-13T11:02:22.600Z,1.57
2019-03-13T11:04:28.768Z,1.63
2019-03-13T11:06:34.646Z,1.37
2019-03-13T11:08:54.469Z,1.60
2019-03-13T11:10:57.794Z,2.40
2019-03-13T11:13:16.102Z,3.23
2019-03-13T11:15:22.277Z,2.57
2019-03-13T11:17:42.224Z,4.53
2019-03-13T11:19:45.533Z,2.37
2019-03-13T11:21:48.790Z,2.30
2019-03-13T11:23:52.104Z,1.33
2019-03-13T11:26:04.378Z,1.50
2019-03-13T11:28:10.628Z,2.03
2019-03-13T11:30:15.548Z,1.63
2019-03-13T11:32:28.019Z,1.80
2019-03-13T11:34:40.286Z,1.67
2019-03-13T11:36:43.531Z,3.70
2019-03-13T11:38:55.657Z,3.40
2019-03-13T11:41:13.870Z,2.10
2019-03-13T11:43:22.991Z,2.57
2019-03-13T11:45:35.423Z,1.30
2019-03-13T11:47:47.792Z,2.80
2019-03-13T11:50:00.425Z,2.23
2019-03-13T11:52:20.654Z,2.00
2019-03-13T11:54:23.904Z,2.57
2019-03-13T11:56:32.879Z,2.60
2019-03-13T11:58:51.082Z,3.00
2019-03-13T12:01:07.002Z,2.83
2019-03-13T12:03:22.068Z,2.73
2019-03-13T12:05:40.317Z,1.87
2019-03-13T12:07:43.881Z,1.90
2019-03-13T12:09:53.050Z,2.30
2019-03-13T12:12:12.807Z,2.20
2019-03-13T12:14:32.562Z,1.63
2019-03-13T12:16:35.816Z,1.50
2019-03-13T12:18:54.043Z,2.17
2019-03-13T12:20:59.431Z,2.87
2019-03-13T12:23:19.268Z,1.80
2019-03-13T12:25:22.519Z,1.33
2019-03-13T12:27:49.714Z,1.87
2019-03-13T12:29:52.963Z,2.00
2019-03-13T12:32:02.167Z,1.83
2019-03-13T12:34:05.613Z,1.60
2019-03-13T12:36:08.862Z,1.50
2019-03-13T12:38:21.306Z,1.70
2019-03-13T12:40:41.015Z,1.27
2019-03-13T12:42:44.324Z,1.77
2019-03-13T12:44:47.605Z,1.57
2019-03-13T12:46:56.702Z,1.47
2019-03-13T12:49:17.964Z,1.43
2019-03-13T12:51:21.218Z,2.83
2019-03-13T12:53:39.429Z,1.80
2019-03-13T12:55:45.840Z,2.23
2019-03-13T12:57:49.079Z,1.87
2019-03-13T12:59:55.099Z,1.90
2019-03-13T13:02:04.755Z,2.10
2019-03-13T13:04:16.682Z,2.70
2019-03-13T13:06:29.164Z,1.90
2019-03-13T13:08:49.273Z,1.60
2019-03-13T13:10:58.302Z,2.03
2019-03-13T13:13:01.538Z,1.63
2019-03-13T13:15:15.278Z,1.80
2019-03-13T13:17:27.613Z,2.07
2019-03-13T13:19:28.983Z,1.90
2019-03-13T13:21:30.325Z,1.50
2019-03-13T13:23:31.688Z,1.90
2019-03-13T13:25:33.123Z,1.30
2019-03-13T13:27:34.533Z,1.30
2019-03-13T13:29:35.870Z,1.60
2019-03-13T13:31:37.248Z,1.60
2019-03-13T13:33:38.616Z,1.70
2019-03-13T13:35:39.986Z,1.90
2019-03-13T13:37:41.332Z,2.47
2019-03-13T13:39:42.696Z,2.30
2019-03-13T13:41:44.054Z,2.03
2019-03-13T13:43:45.391Z,1.77
2019-03-13T13:45:51.509Z,3.07
2019-03-13T13:47:52.824Z,1.50
2019-03-13T13:49:59.713Z,1.40
2019-03-13T13:51:57.457Z,2.10
2019-03-13T13:53:58.831Z,2.43
2019-03-13T13:56:00.179Z,1.40
2019-03-13T13:58:01.543Z,1.73
2019-03-13T14:00:08.522Z,2.00
2019-03-13T14:02:09.863Z,1.67
2019-03-13T14:04:11.245Z,2.00
2019-03-13T14:06:12.605Z,2.10
2019-03-13T14:08:13.923Z,2.50
2019-03-13T14:10:15.295Z,1.50
2019-03-13T14:12:19.894Z,1.70
2019-03-13T14:14:20.341Z,1.47
2019-03-13T14:16:21.685Z,1.63
2019-03-13T14:18:23.061Z,2.03
2019-03-13T14:20:24.429Z,1.57
2019-03-13T14:22:25.770Z,1.97
2019-03-13T14:24:27.105Z,1.20
2019-03-13T14:26:28.786Z,1.50
2019-03-13T14:28:30.128Z,1.40
2019-03-13T14:30:31.573Z,1.40
2019-03-13T14:32:32.939Z,1.50
2019-03-13T14:34:34.283Z,1.50
2019-03-13T14:36:35.630Z,1.60
2019-03-13T14:38:37.026Z,1.40
2019-03-13T14:40:38.365Z,1.90
2019-03-13T14:42:39.712Z,1.57
2019-03-13T14:44:41.079Z,1.17
2019-03-13T14:46:42.421Z,1.40
2019-03-13T14:48:43.763Z,1.07
2019-03-13T14:50:45.218Z,1.57
2019-03-13T14:52:46.656Z,1.50
2019-03-13T14:54:47.996Z,1.87
2019-03-13T14:56:49.382Z,1.57
2019-03-13T14:58:50.776Z,1.17
2019-03-13T15:00:52.101Z,1.40
2019-03-13T15:02:53.441Z,1.53
2019-03-13T15:04:54.840Z,1.90
2019-03-13T15:06:56.175Z,1.30
2019-03-13T15:08:57.517Z,1.60
2019-03-13T15:10:59.085Z,1.57
2019-03-13T15:13:00.492Z,1.43
2019-03-13T15:15:04.764Z,1.43
2019-03-13T15:17:06.184Z,2.20
2019-03-13T15:19:07.525Z,1.63
2019-03-13T15:21:08.858Z,1.00
2019-03-13T15:23:10.397Z,1.47
2019-03-13T15:25:12.337Z,1.33
2019-03-13T15:27:13.670Z,1.77
2019-03-13T15:29:15.045Z,1.30
2019-03-13T15:31:16.422Z,1.40
2019-03-13T15:33:17.769Z,1.37
2019-03-13T15:35:19.117Z,1.43
2019-03-13T15:37:20.491Z,1.53
2019-03-13T15:39:21.835Z,1.17
2019-03-13T15:41:23.202Z,1.50
2019-03-13T15:43:24.538Z,1.57
2019-03-13T15:45:33.685Z,1.60
2019-03-13T15:47:35.020Z,1.20
2019-03-13T15:49:36.362Z,1.97
2019-03-13T15:51:39.000Z,1.80
2019-03-13T15:53:40.541Z,1.20
2019-03-13T15:55:41.885Z,1.07
2019-03-13T15:57:43.245Z,1.50
2019-03-13T15:59:44.607Z,1.80
2019-03-13T16:01:45.970Z,1.37
2019-03-13T16:03:47.338Z,1.47
2019-03-13T16:05:48.710Z,1.90
2019-03-13T16:07:50.063Z,1.30
2019-03-13T16:09:51.449Z,1.30
2019-03-13T16:11:52.839Z,1.13
2019-03-13T16:13:54.207Z,1.40
2019-03-13T16:15:55.625Z,1.17
2019-03-13T16:17:57.359Z,1.37
2019-03-13T16:19:58.704Z,2.40
2019-03-13T16:22:00.194Z,1.17
2019-03-13T16:24:01.537Z,1.23
2019-03-13T16:26:02.911Z,1.43
2019-03-13T16:28:04.355Z,1.40
2019-03-13T16:30:17.157Z,2.90
2019-03-13T16:32:18.699Z,1.40
2019-03-13T16:34:20.079Z,1.53
2019-03-13T16:36:21.467Z,1.77
2019-03-13T16:38:22.809Z,1.23
2019-03-13T16:40:24.164Z,1.40
2019-03-13T16:42:25.546Z,1.60
2019-03-13T16:44:26.890Z,1.23
2019-03-13T16:46:28.229Z,1.60
2019-03-13T16:48:29.609Z,1.80
2019-03-13T16:50:35.359Z,2.17
2019-03-13T16:52:36.705Z,1.20
2019-03-13T16:54:38.071Z,1.30
2019-03-13T16:56:39.413Z,1.23
2019-03-13T16:58:40.789Z,1.00
2019-03-13T17:00:42.167Z,1.20
2019-03-13T17:02:43.695Z,1.13
2019-03-13T17:04:45.168Z,1.43
2019-03-13T17:06:46.560Z,1.20
2019-03-13T17:08:47.891Z,1.80
2019-03-13T17:10:49.230Z,1.50
2019-03-13T17:12:50.702Z,2.47
2019-03-13T17:14:52.040Z,1.40
2019-03-13T17:16:53.386Z,1.20
2019-03-13T17:18:54.806Z,1.47
2019-03-13T17:20:56.144Z,1.47
2019-03-13T17:22:57.479Z,1.50
2019-03-13T17:24:58.850Z,1.50
2019-03-13T17:27:00.217Z,1.20
2019-03-13T17:29:01.552Z,1.70
2019-03-13T17:31:03.039Z,1.93
2019-03-13T17:33:04.479Z,1.43
2019-03-13T17:35:06.020Z,1.37
2019-03-13T17:37:07.388Z,1.03
2019-03-13T17:39:08.926Z,1.40
2019-03-13T17:41:10.321Z,1.60
2019-03-13T17:43:11.654Z,1.50
2019-03-13T17:45:16.117Z,1.60
2019-03-13T17:47:17.592Z,1.70
2019-03-13T17:49:18.955Z,1.30
2019-03-13T17:51:20.336Z,1.63
2019-03-13T17:53:21.668Z,1.20
2019-03-13T17:55:26.119Z,1.57
2019-03-13T17:57:27.595Z,1.40
2019-03-13T17:59:28.939Z,1.90
2019-03-13T18:01:30.506Z,1.43
2019-03-13T18:03:32.218Z,1.33
2019-03-13T18:05:33.796Z,1.90
2019-03-13T18:07:35.139Z,1.50
2019-03-13T18:09:36.704Z,1.70
2019-03-13T18:11:38.044Z,1.17
2019-03-13T18:13:39.379Z,1.40
2019-03-13T18:15:40.790Z,1.40
2019-03-13T18:17:42.234Z,1.47
2019-03-13T18:19:43.580Z,1.40
2019-03-13T18:21:44.969Z,1.67
2019-03-13T18:23:46.305Z,1.40
2019-03-13T18:25:47.643Z,1.10
2019-03-13T18:27:49.026Z,1.07
2019-03-13T18:29:50.382Z,1.80
2019-03-13T18:31:51.723Z,1.43
2019-03-13T18:33:53.109Z,1.40
2019-03-13T18:35:54.446Z,1.60
2019-03-13T18:37:55.993Z,1.60
2019-03-13T18:39:57.375Z,1.30
2019-03-13T18:41:58.717Z,1.73
2019-03-13T18:44:00.062Z,1.80
2019-03-13T18:46:01.456Z,1.60
2019-03-13T18:48:03.463Z,1.50
2019-03-13T18:50:09.896Z,1.57
2019-03-13T18:52:11.273Z,1.60
2019-03-13T18:54:12.700Z,1.73
2019-03-13T18:56:14.039Z,1.50
2019-03-13T18:58:15.385Z,1.90
2019-03-13T19:00:29.245Z,2.73
2019-03-13T19:02:30.634Z,2.07
2019-03-13T19:04:31.980Z,2.30
2019-03-13T19:06:33.316Z,1.90
2019-03-13T19:08:34.721Z,2.10
2019-03-13T19:10:36.059Z,2.03
2019-03-13T19:12:37.500Z,2.17
2019-03-13T19:14:38.943Z,2.70
2019-03-13T19:16:40.289Z,2.30
2019-03-13T19:18:41.695Z,2.17
2019-03-13T19:20:43.034Z,2.20
2019-03-13T19:22:44.382Z,2.50
2019-03-13T19:24:45.931Z,1.80
2019-03-13T19:26:47.257Z,2.00
2019-03-13T19:28:48.609Z,2.00
2019-03-13T19:30:52.759Z,2.50
2019-03-13T19:32:54.595Z,2.57
2019-03-13T19:34:56.552Z,2.00
2019-03-13T19:36:58.177Z,2.07
2019-03-13T19:38:59.500Z,1.80
2019-03-13T19:41:00.849Z,1.90
2019-03-13T19:43:02.356Z,1.97
2019-03-13T19:45:10.358Z,2.50
2019-03-13T19:47:12.044Z,1.77
2019-03-13T19:49:13.427Z,2.13
2019-03-13T19:51:14.925Z,2.07
2019-03-13T19:53:16.317Z,2.27
2019-03-13T19:55:17.771Z,1.70
2019-03-13T19:57:19.169Z,2.40
2019-03-13T19:59:20.513Z,2.17
2019-03-13T20:01:21.871Z,2.30
2019-03-13T20:03:23.379Z,2.17
2019-03-13T20:05:24.839Z,2.27
2019-03-13T20:07:26.281Z,2.13
2019-03-13T20:09:27.665Z,2.17
2019-03-13T20:11:29.011Z,2.17
2019-03-13T20:13:30.404Z,2.50
2019-03-13T20:15:34.061Z,2.23
2019-03-13T20:17:35.400Z,1.93
2019-03-13T20:19:36.898Z,2.17
2019-03-13T20:21:38.297Z,2.50
2019-03-13T20:23:39.641Z,2.37
2019-03-13T20:25:40.978Z,2.70
2019-03-13T20:27:42.375Z,1.23
2019-03-13T20:29:43.822Z,3.03
2019-03-13T20:31:45.171Z,2.30
2019-03-13T20:33:46.967Z,2.43
2019-03-13T20:35:48.375Z,2.10
2019-03-13T20:37:49.720Z,2.40
2019-03-13T20:39:51.055Z,2.57
2019-03-13T20:41:54.286Z,2.23
2019-03-13T20:43:55.704Z,2.47
2019-03-13T20:45:57.018Z,2.00
2019-03-13T20:47:58.515Z,2.70
2019-03-13T20:50:02.816Z,2.47
2019-03-13T20:52:04.275Z,3.83
2019-03-13T20:54:05.684Z,2.60
2019-03-13T20:56:07.027Z,2.50
2019-03-13T20:58:08.367Z,2.30
2019-03-13T21:00:18.000Z,2.90
2019-03-13T21:02:19.391Z,2.70
2019-03-13T21:04:20.727Z,2.93
2019-03-13T21:06:22.074Z,2.30
2019-03-13T21:08:23.474Z,2.63
2019-03-13T21:10:24.818Z,3.63
2019-03-13T21:12:26.156Z,3.10
2019-03-13T21:14:27.555Z,3.13
2019-03-13T21:16:28.951Z,3.03
2019-03-13T21:18:30.303Z,3.53
2019-03-13T21:20:31.710Z,3.77
2019-03-13T21:22:33.058Z,3.50
2019-03-13T21:24:34.390Z,4.23
2019-03-13T21:26:35.785Z,3.97
2019-03-13T21:28:37.124Z,3.57
2019-03-13T21:30:38.564Z,3.67
2019-03-13T21:32:39.957Z,4.13
2019-03-13T21:34:41.319Z,3.60
2019-03-13T21:36:42.718Z,3.50
2019-03-13T21:38:44.058Z,3.67
2019-03-13T21:40:45.411Z,3.50
2019-03-13T21:42:47.235Z,3.50
2019-03-13T21:44:48.641Z,3.60
2019-03-13T21:46:49.987Z,3.40
2019-03-13T21:48:51.524Z,4.03
2019-03-13T21:50:52.879Z,3.13
2019-03-13T21:52:54.210Z,3.70
2019-03-13T21:54:55.614Z,4.37
2019-03-13T21:56:56.982Z,4.50
2019-03-13T21:58:58.740Z,4.07
2019-03-13T22:01:00.141Z,3.60
2019-03-13T22:03:01.479Z,3.80
2019-03-13T22:05:04.027Z,3.70
2019-03-13T22:07:05.431Z,4.30
2019-03-13T22:09:06.958Z,3.63
2019-03-13T22:11:08.303Z,3.83
2019-03-13T22:13:09.735Z,3.97
2019-03-13T22:15:16.557Z,3.53
2019-03-13T22:17:17.903Z,3.97
2019-03-13T22:19:19.382Z,4.20
2019-03-13T22:21:20.736Z,4.17
2019-03-13T22:23:22.134Z,4.03
2019-03-13T22:25:23.682Z,4.60
2019-03-13T22:27:25.021Z,4.40
2019-03-13T22:29:26.416Z,4.50
2019-03-13T22:31:27.753Z,5.83
2019-03-13T22:33:29.134Z,4.07
2019-03-13T22:35:30.530Z,4.50
2019-03-13T22:37:31.896Z,4.10
2019-03-13T22:39:33.296Z,4.10
2019-03-13T22:41:36.669Z,3.50
2019-03-13T22:43:37.879Z,4.03
2019-03-13T22:45:39.315Z,4.73
2019-03-13T22:47:42.930Z,5.07
2019-03-13T22:49:43.895Z,3.93
2019-03-13T22:51:45.276Z,4.00
2019-03-13T22:53:46.615Z,4.63
2019-03-13T22:55:48.433Z,3.90
2019-03-13T22:57:49.778Z,4.17
2019-03-13T22:59:51.126Z,4.13
2019-03-13T23:01:52.514Z,3.70
2019-03-13T23:03:54.607Z,3.00
2019-03-13T23:05:56.409Z,3.67
2019-03-13T23:07:57.804Z,4.97
2019-03-13T23:09:59.211Z,3.30
2019-03-13T23:12:00.663Z,3.77
2019-03-13T23:14:02.293Z,3.80
2019-03-13T23:16:03.737Z,3.77
2019-03-13T23:18:05.191Z,4.10
2019-03-13T23:20:06.747Z,3.80
2019-03-13T23:22:08.094Z,4.03
2019-03-13T23:24:09.446Z,3.17
2019-03-13T23:26:10.871Z,3.83
2019-03-13T23:28:12.208Z,3.50
2019-03-13T23:30:13.604Z,4.17
2019-03-13T23:32:14.944Z,3.73
2019-03-13T23:34:16.390Z,3.37
2019-03-13T23:36:18.075Z,3.40
2019-03-13T23:38:19.423Z,3.10
2019-03-13T23:40:20.764Z,3.80
2019-03-13T23:42:22.162Z,2.80
2019-03-13T23:44:23.506Z,3.53
2019-03-13T23:46:24.851Z,3.30
2019-03-13T23:48:26.240Z,3.67
2019-03-13T23:50:27.886Z,3.40
2019-03-13T23:52:29.240Z,4.07
2019-03-13T23:54:30.639Z,3.97
2019-03-13T23:56:31.976Z,3.53
2019-03-13T23:58:33.312Z,3.50
